sensor_id;sensor_type;location;lat;lon;timestamp;P1;durP1;ratioP1;P2;durP2;ratioP2
45762;SDS011;37512;52.408;13.356;2023-08-30T00:01:03;3.95;;;3.35;;
45762;SDS011;37512;52.408;13.356;2023-08-30T00:05:05;4.63;;;3.13;;
45762;SDS011;37512;52.408;13.356;2023-08-30T00:09:07;10.02;;;3.30;;
45762;SDS011;37512;52.408;13.356;2023-08-30T00:13:09;5.90;;;3.55;;
45762;SDS011;37512;52.408;13.356;2023-08-30T00:17:11;3.45;;;2.70;;
45762;SDS011;37512;52.408;13.356;2023-08-30T00:21:12;5.32;;;3.08;;
45762;SDS011;37512;52.408;13.356;2023-08-30T00:25:14;6.93;;;3.40;;
45762;SDS011;37512;52.408;13.356;2023-08-30T00:29:17;8.98;;;3.30;;
45762;SDS011;37512;52.408;13.356;2023-08-30T00:33:18;3.78;;;2.65;;
45762;SDS011;37512;52.408;13.356;2023-08-30T00:37:23;4.95;;;2.80;;
45762;SDS011;37512;52.408;13.356;2023-08-30T00:41:24;4.85;;;2.78;;
45762;SDS011;37512;52.408;13.356;2023-08-30T00:45:26;7.75;;;3.38;;
45762;SDS011;37512;52.408;13.356;2023-08-30T00:49:31;5.88;;;2.85;;
45762;SDS011;37512;52.408;13.356;2023-08-30T00:53:33;7.55;;;2.78;;
45762;SDS011;37512;52.408;13.356;2023-08-30T00:57:34;3.40;;;2.80;;
45762;SDS011;37512;52.408;13.356;2023-08-30T01:01:37;4.47;;;3.08;;
45762;SDS011;37512;52.408;13.356;2023-08-30T01:05:40;5.88;;;3.05;;
45762;SDS011;37512;52.408;13.356;2023-08-30T01:09:42;5.85;;;3.25;;
45762;SDS011;37512;52.408;13.356;2023-08-30T01:13:51;5.05;;;3.10;;
45762;SDS011;37512;52.408;13.356;2023-08-30T01:17:57;4.28;;;3.45;;
45762;SDS011;37512;52.408;13.356;2023-08-30T01:22:05;6.05;;;3.00;;
45762;SDS011;37512;52.408;13.356;2023-08-30T01:30:32;3.78;;;2.83;;
45762;SDS011;37512;52.408;13.356;2023-08-30T01:34:37;5.07;;;3.03;;
45762;SDS011;37512;52.408;13.356;2023-08-30T01:38:40;5.72;;;3.47;;
45762;SDS011;37512;52.408;13.356;2023-08-30T01:42:43;4.00;;;3.13;;
45762;SDS011;37512;52.408;13.356;2023-08-30T01:46:46;4.68;;;3.10;;
45762;SDS011;37512;52.408;13.356;2023-08-30T01:50:49;4.55;;;3.15;;
45762;SDS011;37512;52.408;13.356;2023-08-30T01:54:51;5.22;;;3.15;;
45762;SDS011;37512;52.408;13.356;2023-08-30T01:58:54;3.90;;;3.28;;
45762;SDS011;37512;52.408;13.356;2023-08-30T02:02:56;5.22;;;3.17;;
45762;SDS011;37512;52.408;13.356;2023-08-30T02:07:00;3.58;;;3.05;;
45762;SDS011;37512;52.408;13.356;2023-08-30T02:11:07;6.32;;;3.72;;
45762;SDS011;37512;52.408;13.356;2023-08-30T02:15:13;4.88;;;2.95;;
45762;SDS011;37512;52.408;13.356;2023-08-30T02:19:17;5.40;;;3.35;;
45762;SDS011;37512;52.408;13.356;2023-08-30T02:23:25;7.22;;;3.30;;
45762;SDS011;37512;52.408;13.356;2023-08-30T02:27:26;3.92;;;3.20;;
45762;SDS011;37512;52.408;13.356;2023-08-30T02:31:28;10.15;;;4.03;;
45762;SDS011;37512;52.408;13.356;2023-08-30T02:35:30;4.40;;;3.42;;
45762;SDS011;37512;52.408;13.356;2023-08-30T02:39:42;6.35;;;3.70;;
45762;SDS011;37512;52.408;13.356;2023-08-30T02:43:46;5.90;;;3.47;;
45762;SDS011;37512;52.408;13.356;2023-08-30T02:47:48;4.75;;;3.53;;
45762;SDS011;37512;52.408;13.356;2023-08-30T02:51:49;7.63;;;3.80;;
45762;SDS011;37512;52.408;13.356;2023-08-30T02:55:51;6.55;;;3.83;;
45762;SDS011;37512;52.408;13.356;2023-08-30T02:59:56;6.53;;;4.45;;
45762;SDS011;37512;52.408;13.356;2023-08-30T03:03:58;5.47;;;3.42;;
45762;SDS011;37512;52.408;13.356;2023-08-30T03:07:59;6.00;;;3.85;;
45762;SDS011;37512;52.408;13.356;2023-08-30T03:12:01;8.05;;;4.28;;
45762;SDS011;37512;52.408;13.356;2023-08-30T03:16:12;4.40;;;3.20;;
45762;SDS011;37512;52.408;13.356;2023-08-30T03:20:13;4.78;;;3.45;;
45762;SDS011;37512;52.408;13.356;2023-08-30T03:24:15;7.30;;;3.95;;
45762;SDS011;37512;52.408;13.356;2023-08-30T03:28:17;5.05;;;3.40;;
45762;SDS011;37512;52.408;13.356;2023-08-30T03:32:19;4.50;;;3.83;;
45762;SDS011;37512;52.408;13.356;2023-08-30T03:36:22;9.98;;;3.78;;
45762;SDS011;37512;52.408;13.356;2023-08-30T03:40:24;6.03;;;3.85;;
45762;SDS011;37512;52.408;13.356;2023-08-30T03:44:25;5.80;;;4.18;;
45762;SDS011;37512;52.408;13.356;2023-08-30T03:48:27;7.20;;;3.75;;
45762;SDS011;37512;52.408;13.356;2023-08-30T03:52:29;6.63;;;4.85;;
45762;SDS011;37512;52.408;13.356;2023-08-30T03:56:30;5.80;;;3.75;;
45762;SDS011;37512;52.408;13.356;2023-08-30T04:00:32;4.80;;;3.88;;
45762;SDS011;37512;52.408;13.356;2023-08-30T04:04:33;4.93;;;4.13;;
45762;SDS011;37512;52.408;13.356;2023-08-30T04:08:34;4.90;;;4.18;;
45762;SDS011;37512;52.408;13.356;2023-08-30T04:12:36;6.65;;;4.57;;
45762;SDS011;37512;52.408;13.356;2023-08-30T04:16:37;8.85;;;3.92;;
45762;SDS011;37512;52.408;13.356;2023-08-30T04:20:43;5.90;;;4.22;;
45762;SDS011;37512;52.408;13.356;2023-08-30T04:24:46;9.43;;;3.92;;
45762;SDS011;37512;52.408;13.356;2023-08-30T04:28:47;7.68;;;4.10;;
45762;SDS011;37512;52.408;13.356;2023-08-30T04:32:49;7.22;;;3.80;;
45762;SDS011;37512;52.408;13.356;2023-08-30T04:36:51;5.75;;;4.05;;
45762;SDS011;37512;52.408;13.356;2023-08-30T04:40:56;7.88;;;4.75;;
45762;SDS011;37512;52.408;13.356;2023-08-30T04:45:00;7.28;;;3.92;;
45762;SDS011;37512;52.408;13.356;2023-08-30T04:49:02;10.52;;;4.70;;
45762;SDS011;37512;52.408;13.356;2023-08-30T04:53:03;7.15;;;4.10;;
45762;SDS011;37512;52.408;13.356;2023-08-30T04:57:05;6.05;;;4.28;;
45762;SDS011;37512;52.408;13.356;2023-08-30T05:01:06;6.43;;;4.45;;
45762;SDS011;37512;52.408;13.356;2023-08-30T05:05:08;7.18;;;4.57;;
45762;SDS011;37512;52.408;13.356;2023-08-30T05:09:10;7.57;;;4.50;;
45762;SDS011;37512;52.408;13.356;2023-08-30T05:13:14;9.52;;;4.68;;
45762;SDS011;37512;52.408;13.356;2023-08-30T05:17:17;6.93;;;4.88;;
45762;SDS011;37512;52.408;13.356;2023-08-30T05:21:19;8.30;;;4.95;;
45762;SDS011;37512;52.408;13.356;2023-08-30T05:25:20;6.25;;;5.00;;
45762;SDS011;37512;52.408;13.356;2023-08-30T05:29:22;7.72;;;5.47;;
45762;SDS011;37512;52.408;13.356;2023-08-30T05:33:24;12.38;;;5.90;;
45762;SDS011;37512;52.408;13.356;2023-08-30T05:37:25;8.70;;;5.18;;
45762;SDS011;37512;52.408;13.356;2023-08-30T05:41:27;8.48;;;4.93;;
45762;SDS011;37512;52.408;13.356;2023-08-30T05:45:29;8.73;;;4.88;;
45762;SDS011;37512;52.408;13.356;2023-08-30T05:49:30;6.05;;;5.00;;
45762;SDS011;37512;52.408;13.356;2023-08-30T05:53:32;6.97;;;4.82;;
45762;SDS011;37512;52.408;13.356;2023-08-30T05:57:34;5.93;;;4.90;;
45762;SDS011;37512;52.408;13.356;2023-08-30T06:01:35;9.68;;;5.38;;
45762;SDS011;37512;52.408;13.356;2023-08-30T06:05:37;7.15;;;5.30;;
45762;SDS011;37512;52.408;13.356;2023-08-30T06:09:39;6.88;;;5.30;;
45762;SDS011;37512;52.408;13.356;2023-08-30T06:13:40;8.70;;;6.03;;
45762;SDS011;37512;52.408;13.356;2023-08-30T06:17:42;6.15;;;4.90;;
45762;SDS011;37512;52.408;13.356;2023-08-30T06:21:44;7.50;;;4.70;;
45762;SDS011;37512;52.408;13.356;2023-08-30T06:25:53;7.80;;;4.47;;
45762;SDS011;37512;52.408;13.356;2023-08-30T06:29:55;5.90;;;4.60;;
45762;SDS011;37512;52.408;13.356;2023-08-30T06:33:57;8.50;;;5.05;;
45762;SDS011;37512;52.408;13.356;2023-08-30T06:37:59;13.65;;;4.88;;
45762;SDS011;37512;52.408;13.356;2023-08-30T06:42:01;7.45;;;5.05;;
45762;SDS011;37512;52.408;13.356;2023-08-30T06:46:03;9.48;;;4.90;;
45762;SDS011;37512;52.408;13.356;2023-08-30T06:50:04;6.80;;;4.45;;
45762;SDS011;37512;52.408;13.356;2023-08-30T06:54:07;6.30;;;4.55;;
45762;SDS011;37512;52.408;13.356;2023-08-30T06:58:09;9.18;;;4.88;;
45762;SDS011;37512;52.408;13.356;2023-08-30T07:02:11;6.70;;;4.70;;
45762;SDS011;37512;52.408;13.356;2023-08-30T07:06:12;8.68;;;4.25;;
45762;SDS011;37512;52.408;13.356;2023-08-30T07:10:14;7.28;;;4.10;;
45762;SDS011;37512;52.408;13.356;2023-08-30T07:14:16;8.60;;;3.63;;
45762;SDS011;37512;52.408;13.356;2023-08-30T07:18:17;7.70;;;3.63;;
45762;SDS011;37512;52.408;13.356;2023-08-30T07:22:19;7.80;;;4.43;;
45762;SDS011;37512;52.408;13.356;2023-08-30T07:26:21;8.55;;;4.10;;
45762;SDS011;37512;52.408;13.356;2023-08-30T07:30:22;5.57;;;3.28;;
45762;SDS011;37512;52.408;13.356;2023-08-30T07:34:24;3.60;;;2.90;;
45762;SDS011;37512;52.408;13.356;2023-08-30T07:38:25;5.82;;;3.67;;
45762;SDS011;37512;52.408;13.356;2023-08-30T07:42:27;7.07;;;3.33;;
45762;SDS011;37512;52.408;13.356;2023-08-30T07:46:28;6.88;;;4.13;;
45762;SDS011;37512;52.408;13.356;2023-08-30T07:50:30;8.18;;;3.53;;
45762;SDS011;37512;52.408;13.356;2023-08-30T07:54:32;5.53;;;3.08;;
45762;SDS011;37512;52.408;13.356;2023-08-30T07:58:34;6.07;;;3.55;;
45762;SDS011;37512;52.408;13.356;2023-08-30T08:02:35;5.80;;;3.33;;
45762;SDS011;37512;52.408;13.356;2023-08-30T08:06:37;4.53;;;2.90;;
45762;SDS011;37512;52.408;13.356;2023-08-30T08:10:44;4.88;;;2.40;;
45762;SDS011;37512;52.408;13.356;2023-08-30T08:14:45;5.30;;;2.75;;
45762;SDS011;37512;52.408;13.356;2023-08-30T08:18:47;4.50;;;2.58;;
45762;SDS011;37512;52.408;13.356;2023-08-30T08:22:49;5.30;;;3.22;;
45762;SDS011;37512;52.408;13.356;2023-08-30T08:26:50;4.47;;;3.13;;
45762;SDS011;37512;52.408;13.356;2023-08-30T08:30:52;3.50;;;3.05;;
45762;SDS011;37512;52.408;13.356;2023-08-30T08:34:54;3.72;;;3.05;;
45762;SDS011;37512;52.408;13.356;2023-08-30T08:38:56;3.42;;;2.72;;
45762;SDS011;37512;52.408;13.356;2023-08-30T08:42:57;5.15;;;2.53;;
45762;SDS011;37512;52.408;13.356;2023-08-30T08:47:00;5.15;;;2.30;;
45762;SDS011;37512;52.408;13.356;2023-08-30T08:51:02;3.35;;;2.20;;
45762;SDS011;37512;52.408;13.356;2023-08-30T08:55:04;5.45;;;3.70;;
45762;SDS011;37512;52.408;13.356;2023-08-30T08:59:06;4.88;;;3.88;;
45762;SDS011;37512;52.408;13.356;2023-08-30T09:03:10;5.03;;;2.60;;
45762;SDS011;37512;52.408;13.356;2023-08-30T09:07:16;5.95;;;2.20;;
45762;SDS011;37512;52.408;13.356;2023-08-30T09:11:18;5.63;;;2.50;;
45762;SDS011;37512;52.408;13.356;2023-08-30T09:15:20;5.47;;;2.67;;
45762;SDS011;37512;52.408;13.356;2023-08-30T09:19:22;10.95;;;2.15;;
45762;SDS011;37512;52.408;13.356;2023-08-30T09:23:24;5.53;;;2.53;;
45762;SDS011;37512;52.408;13.356;2023-08-30T09:27:33;5.40;;;2.58;;
45762;SDS011;37512;52.408;13.356;2023-08-30T09:31:38;4.30;;;2.87;;
45762;SDS011;37512;52.408;13.356;2023-08-30T09:35:45;5.85;;;2.00;;
45762;SDS011;37512;52.408;13.356;2023-08-30T09:39:50;4.32;;;2.15;;
45762;SDS011;37512;52.408;13.356;2023-08-30T09:43:52;4.07;;;2.00;;
45762;SDS011;37512;52.408;13.356;2023-08-30T09:48:12;6.65;;;1.88;;
45762;SDS011;37512;52.408;13.356;2023-08-30T09:52:16;4.38;;;2.20;;
45762;SDS011;37512;52.408;13.356;2023-08-30T09:56:21;3.65;;;2.00;;
45762;SDS011;37512;52.408;13.356;2023-08-30T10:00:23;2.50;;;1.85;;
45762;SDS011;37512;52.408;13.356;2023-08-30T10:04:25;3.50;;;2.28;;
45762;SDS011;37512;52.408;13.356;2023-08-30T10:08:29;4.75;;;2.15;;
45762;SDS011;37512;52.408;13.356;2023-08-30T10:12:32;2.40;;;1.48;;
45762;SDS011;37512;52.408;13.356;2023-08-30T10:16:47;3.50;;;1.75;;
45762;SDS011;37512;52.408;13.356;2023-08-30T10:20:50;2.47;;;1.50;;
45762;SDS011;37512;52.408;13.356;2023-08-30T10:24:56;3.70;;;1.92;;
45762;SDS011;37512;52.408;13.356;2023-08-30T10:29:12;2.97;;;1.77;;
45762;SDS011;37512;52.408;13.356;2023-08-30T10:33:15;2.92;;;1.80;;
45762;SDS011;37512;52.408;13.356;2023-08-30T10:37:22;2.47;;;1.75;;
45762;SDS011;37512;52.408;13.356;2023-08-30T10:41:25;2.60;;;1.38;;
45762;SDS011;37512;52.408;13.356;2023-08-30T10:45:27;7.30;;;2.67;;
45762;SDS011;37512;52.408;13.356;2023-08-30T10:49:29;3.03;;;1.55;;
45762;SDS011;37512;52.408;13.356;2023-08-30T10:53:40;2.50;;;1.40;;
45762;SDS011;37512;52.408;13.356;2023-08-30T10:57:42;2.58;;;1.48;;
45762;SDS011;37512;52.408;13.356;2023-08-30T11:01:46;3.75;;;1.33;;
45762;SDS011;37512;52.408;13.356;2023-08-30T11:05:49;2.95;;;1.40;;
45762;SDS011;37512;52.408;13.356;2023-08-30T11:09:54;1.85;;;1.08;;
45762;SDS011;37512;52.408;13.356;2023-08-30T11:14:03;4.15;;;1.60;;
45762;SDS011;37512;52.408;13.356;2023-08-30T11:18:06;3.65;;;1.67;;
45762;SDS011;37512;52.408;13.356;2023-08-30T11:22:08;2.28;;;1.30;;
45762;SDS011;37512;52.408;13.356;2023-08-30T11:26:11;3.45;;;1.27;;
45762;SDS011;37512;52.408;13.356;2023-08-30T11:30:13;3.75;;;2.83;;
45762;SDS011;37512;52.408;13.356;2023-08-30T11:34:15;1.50;;;1.13;;
45762;SDS011;37512;52.408;13.356;2023-08-30T11:38:21;1.35;;;0.90;;
45762;SDS011;37512;52.408;13.356;2023-08-30T11:42:23;2.53;;;1.38;;
45762;SDS011;37512;52.408;13.356;2023-08-30T11:46:25;3.60;;;1.38;;
45762;SDS011;37512;52.408;13.356;2023-08-30T11:50:27;2.35;;;1.30;;
45762;SDS011;37512;52.408;13.356;2023-08-30T11:54:39;2.88;;;1.30;;
45762;SDS011;37512;52.408;13.356;2023-08-30T11:58:41;2.42;;;1.40;;
45762;SDS011;37512;52.408;13.356;2023-08-30T12:02:47;5.95;;;2.38;;
45762;SDS011;37512;52.408;13.356;2023-08-30T12:06:52;5.78;;;3.63;;
45762;SDS011;37512;52.408;13.356;2023-08-30T12:10:55;3.08;;;1.95;;
45762;SDS011;37512;52.408;13.356;2023-08-30T12:14:57;3.75;;;2.15;;
45762;SDS011;37512;52.408;13.356;2023-08-30T12:19:08;3.50;;;1.88;;
45762;SDS011;37512;52.408;13.356;2023-08-30T12:23:21;2.30;;;1.80;;
45762;SDS011;37512;52.408;13.356;2023-08-30T12:27:26;5.82;;;2.10;;
45762;SDS011;37512;52.408;13.356;2023-08-30T12:31:27;3.50;;;1.70;;
45762;SDS011;37512;52.408;13.356;2023-08-30T12:35:29;4.35;;;1.88;;
45762;SDS011;37512;52.408;13.356;2023-08-30T12:39:31;3.63;;;1.30;;
45762;SDS011;37512;52.408;13.356;2023-08-30T12:43:33;2.10;;;1.13;;
45762;SDS011;37512;52.408;13.356;2023-08-30T12:47:34;6.38;;;1.50;;
45762;SDS011;37512;52.408;13.356;2023-08-30T12:51:37;2.42;;;1.52;;
45762;SDS011;37512;52.408;13.356;2023-08-30T12:55:38;3.45;;;1.45;;
45762;SDS011;37512;52.408;13.356;2023-08-30T12:59:43;2.67;;;1.30;;
45762;SDS011;37512;52.408;13.356;2023-08-30T13:03:44;3.60;;;1.50;;
45762;SDS011;37512;52.408;13.356;2023-08-30T13:07:46;2.35;;;1.23;;
45762;SDS011;37512;52.408;13.356;2023-08-30T13:11:48;2.63;;;1.02;;
45762;SDS011;37512;52.408;13.356;2023-08-30T13:15:49;2.40;;;1.15;;
45762;SDS011;37512;52.408;13.356;2023-08-30T13:19:51;1.85;;;1.10;;
45762;SDS011;37512;52.408;13.356;2023-08-30T13:23:53;3.08;;;1.25;;
45762;SDS011;37512;52.408;13.356;2023-08-30T13:27:55;4.40;;;2.40;;
45762;SDS011;37512;52.408;13.356;2023-08-30T13:31:56;2.90;;;2.30;;
45762;SDS011;37512;52.408;13.356;2023-08-30T13:35:58;3.53;;;2.05;;
45762;SDS011;37512;52.408;13.356;2023-08-30T13:39:59;3.00;;;1.30;;
45762;SDS011;37512;52.408;13.356;2023-08-30T13:44:01;3.47;;;1.55;;
45762;SDS011;37512;52.408;13.356;2023-08-30T13:48:04;4.10;;;1.77;;
45762;SDS011;37512;52.408;13.356;2023-08-30T13:52:06;3.22;;;1.30;;
45762;SDS011;37512;52.408;13.356;2023-08-30T13:56:08;4.63;;;1.48;;
45762;SDS011;37512;52.408;13.356;2023-08-30T14:00:10;2.70;;;1.10;;
45762;SDS011;37512;52.408;13.356;2023-08-30T14:04:12;1.98;;;1.10;;
45762;SDS011;37512;52.408;13.356;2023-08-30T14:08:13;2.53;;;1.58;;
45762;SDS011;37512;52.408;13.356;2023-08-30T14:12:15;2.15;;;1.25;;
45762;SDS011;37512;52.408;13.356;2023-08-30T14:16:17;4.15;;;1.55;;
45762;SDS011;37512;52.408;13.356;2023-08-30T14:20:19;3.30;;;1.27;;
45762;SDS011;37512;52.408;13.356;2023-08-30T14:24:21;3.20;;;1.40;;
45762;SDS011;37512;52.408;13.356;2023-08-30T14:28:23;3.53;;;1.77;;
45762;SDS011;37512;52.408;13.356;2023-08-30T14:32:25;3.08;;;1.58;;
45762;SDS011;37512;52.408;13.356;2023-08-30T14:36:27;3.47;;;1.60;;
45762;SDS011;37512;52.408;13.356;2023-08-30T14:40:29;5.82;;;1.38;;
45762;SDS011;37512;52.408;13.356;2023-08-30T14:44:30;5.57;;;1.33;;
45762;SDS011;37512;52.408;13.356;2023-08-30T14:48:32;2.22;;;1.63;;
45762;SDS011;37512;52.408;13.356;2023-08-30T14:52:34;2.45;;;1.63;;
45762;SDS011;37512;52.408;13.356;2023-08-30T14:56:36;2.53;;;1.60;;
45762;SDS011;37512;52.408;13.356;2023-08-30T15:00:38;2.20;;;1.60;;
45762;SDS011;37512;52.408;13.356;2023-08-30T15:04:40;3.05;;;1.70;;
45762;SDS011;37512;52.408;13.356;2023-08-30T15:08:42;2.78;;;1.52;;
45762;SDS011;37512;52.408;13.356;2023-08-30T15:12:44;5.10;;;2.13;;
45762;SDS011;37512;52.408;13.356;2023-08-30T15:16:45;3.67;;;1.85;;
45762;SDS011;37512;52.408;13.356;2023-08-30T15:20:47;5.47;;;2.22;;
45762;SDS011;37512;52.408;13.356;2023-08-30T15:24:50;3.85;;;3.00;;
45762;SDS011;37512;52.408;13.356;2023-08-30T15:28:51;3.65;;;2.20;;
45762;SDS011;37512;52.408;13.356;2023-08-30T15:32:53;3.60;;;1.80;;
45762;SDS011;37512;52.408;13.356;2023-08-30T15:36:55;2.65;;;1.70;;
45762;SDS011;37512;52.408;13.356;2023-08-30T15:40:57;2.35;;;1.83;;
45762;SDS011;37512;52.408;13.356;2023-08-30T15:44:59;4.55;;;2.10;;
45762;SDS011;37512;52.408;13.356;2023-08-30T15:49:04;3.13;;;2.13;;
45762;SDS011;37512;52.408;13.356;2023-08-30T15:53:06;4.80;;;1.88;;
45762;SDS011;37512;52.408;13.356;2023-08-30T15:57:07;3.05;;;2.05;;
45762;SDS011;37512;52.408;13.356;2023-08-30T16:01:09;4.32;;;1.50;;
45762;SDS011;37512;52.408;13.356;2023-08-30T16:05:10;2.33;;;1.60;;
45762;SDS011;37512;52.408;13.356;2023-08-30T16:09:12;3.15;;;2.00;;
45762;SDS011;37512;52.408;13.356;2023-08-30T16:13:13;3.33;;;2.00;;
45762;SDS011;37512;52.408;13.356;2023-08-30T16:17:15;2.60;;;1.90;;
45762;SDS011;37512;52.408;13.356;2023-08-30T16:21:17;4.22;;;2.25;;
45762;SDS011;37512;52.408;13.356;2023-08-30T16:25:18;4.45;;;2.15;;
45762;SDS011;37512;52.408;13.356;2023-08-30T16:29:20;4.30;;;2.13;;
45762;SDS011;37512;52.408;13.356;2023-08-30T16:33:22;3.17;;;1.70;;
45762;SDS011;37512;52.408;13.356;2023-08-30T16:37:23;7.07;;;4.72;;
45762;SDS011;37512;52.408;13.356;2023-08-30T16:41:25;2.83;;;1.95;;
45762;SDS011;37512;52.408;13.356;2023-08-30T16:45:26;4.40;;;2.38;;
45762;SDS011;37512;52.408;13.356;2023-08-30T16:49:28;2.30;;;1.52;;
45762;SDS011;37512;52.408;13.356;2023-08-30T16:53:31;4.15;;;2.03;;
45762;SDS011;37512;52.408;13.356;2023-08-30T16:57:33;7.15;;;3.03;;
45762;SDS011;37512;52.408;13.356;2023-08-30T17:01:35;2.08;;;1.55;;
45762;SDS011;37512;52.408;13.356;2023-08-30T17:05:37;5.43;;;2.17;;
45762;SDS011;37512;52.408;13.356;2023-08-30T17:09:41;3.08;;;1.85;;
45762;SDS011;37512;52.408;13.356;2023-08-30T17:13:42;2.55;;;1.70;;
45762;SDS011;37512;52.408;13.356;2023-08-30T17:17:44;4.80;;;1.20;;
45762;SDS011;37512;52.408;13.356;2023-08-30T17:21:45;2.22;;;1.77;;
45762;SDS011;37512;52.408;13.356;2023-08-30T17:25:49;5.63;;;2.55;;
45762;SDS011;37512;52.408;13.356;2023-08-30T17:29:51;4.35;;;2.92;;
45762;SDS011;37512;52.408;13.356;2023-08-30T17:33:53;7.63;;;5.05;;
45762;SDS011;37512;52.408;13.356;2023-08-30T17:37:55;7.15;;;3.00;;
45762;SDS011;37512;52.408;13.356;2023-08-30T17:41:56;10.95;;;7.35;;
45762;SDS011;37512;52.408;13.356;2023-08-30T17:45:59;7.28;;;4.80;;
45762;SDS011;37512;52.408;13.356;2023-08-30T17:50:00;11.98;;;5.50;;
45762;SDS011;37512;52.408;13.356;2023-08-30T17:54:02;4.13;;;2.65;;
45762;SDS011;37512;52.408;13.356;2023-08-30T17:58:04;2.88;;;2.17;;
45762;SDS011;37512;52.408;13.356;2023-08-30T18:02:09;4.85;;;2.20;;
45762;SDS011;37512;52.408;13.356;2023-08-30T18:06:12;2.70;;;2.25;;
45762;SDS011;37512;52.408;13.356;2023-08-30T18:10:15;4.28;;;2.20;;
45762;SDS011;37512;52.408;13.356;2023-08-30T18:14:17;3.17;;;2.30;;
45762;SDS011;37512;52.408;13.356;2023-08-30T18:18:18;4.70;;;2.85;;
45762;SDS011;37512;52.408;13.356;2023-08-30T18:22:20;3.75;;;1.85;;
45762;SDS011;37512;52.408;13.356;2023-08-30T18:26:22;2.97;;;1.80;;
45762;SDS011;37512;52.408;13.356;2023-08-30T18:30:26;3.33;;;2.50;;
45762;SDS011;37512;52.408;13.356;2023-08-30T18:34:28;4.55;;;1.90;;
45762;SDS011;37512;52.408;13.356;2023-08-30T18:38:30;4.05;;;1.90;;
45762;SDS011;37512;52.408;13.356;2023-08-30T18:42:32;3.72;;;2.30;;
45762;SDS011;37512;52.408;13.356;2023-08-30T18:46:33;8.10;;;2.55;;
45762;SDS011;37512;52.408;13.356;2023-08-30T18:50:35;5.15;;;2.10;;
45762;SDS011;37512;52.408;13.356;2023-08-30T18:54:36;2.75;;;2.00;;
45762;SDS011;37512;52.408;13.356;2023-08-30T18:58:44;5.85;;;1.80;;
45762;SDS011;37512;52.408;13.356;2023-08-30T19:02:46;5.38;;;3.00;;
45762;SDS011;37512;52.408;13.356;2023-08-30T19:06:48;5.88;;;3.13;;
45762;SDS011;37512;52.408;13.356;2023-08-30T19:10:49;7.20;;;3.17;;
45762;SDS011;37512;52.408;13.356;2023-08-30T19:14:51;6.82;;;2.35;;
45762;SDS011;37512;52.408;13.356;2023-08-30T19:18:53;5.38;;;2.40;;
45762;SDS011;37512;52.408;13.356;2023-08-30T19:22:55;6.75;;;2.67;;
45762;SDS011;37512;52.408;13.356;2023-08-30T19:26:56;6.13;;;3.42;;
45762;SDS011;37512;52.408;13.356;2023-08-30T19:30:58;6.75;;;3.80;;
45762;SDS011;37512;52.408;13.356;2023-08-30T19:35:00;5.22;;;3.22;;
45762;SDS011;37512;52.408;13.356;2023-08-30T19:39:02;5.28;;;3.20;;
45762;SDS011;37512;52.408;13.356;2023-08-30T19:43:04;4.93;;;3.13;;
45762;SDS011;37512;52.408;13.356;2023-08-30T19:47:06;4.80;;;2.70;;
45762;SDS011;37512;52.408;13.356;2023-08-30T19:51:08;3.92;;;2.97;;
45762;SDS011;37512;52.408;13.356;2023-08-30T19:55:09;5.22;;;2.80;;
45762;SDS011;37512;52.408;13.356;2023-08-30T19:59:11;5.10;;;2.90;;
45762;SDS011;37512;52.408;13.356;2023-08-30T20:03:13;6.00;;;3.00;;
45762;SDS011;37512;52.408;13.356;2023-08-30T20:07:15;5.30;;;2.92;;
45762;SDS011;37512;52.408;13.356;2023-08-30T20:11:16;5.90;;;3.22;;
45762;SDS011;37512;52.408;13.356;2023-08-30T20:15:18;5.43;;;3.58;;
45762;SDS011;37512;52.408;13.356;2023-08-30T20:19:20;5.22;;;3.60;;
45762;SDS011;37512;52.408;13.356;2023-08-30T20:23:22;5.85;;;3.72;;
45762;SDS011;37512;52.408;13.356;2023-08-30T20:27:24;7.80;;;3.90;;
45762;SDS011;37512;52.408;13.356;2023-08-30T20:31:25;7.25;;;3.78;;
45762;SDS011;37512;52.408;13.356;2023-08-30T20:35:27;6.13;;;3.78;;
45762;SDS011;37512;52.408;13.356;2023-08-30T20:39:29;8.55;;;3.55;;
45762;SDS011;37512;52.408;13.356;2023-08-30T20:43:30;6.63;;;3.53;;
45762;SDS011;37512;52.408;13.356;2023-08-30T20:47:32;6.25;;;3.05;;
45762;SDS011;37512;52.408;13.356;2023-08-30T20:51:33;6.97;;;3.42;;
45762;SDS011;37512;52.408;13.356;2023-08-30T20:55:42;4.80;;;3.40;;
45762;SDS011;37512;52.408;13.356;2023-08-30T20:59:44;4.40;;;3.22;;
45762;SDS011;37512;52.408;13.356;2023-08-30T21:03:46;8.88;;;5.03;;
45762;SDS011;37512;52.408;13.356;2023-08-30T21:07:48;6.38;;;3.55;;
45762;SDS011;37512;52.408;13.356;2023-08-30T21:11:49;4.57;;;3.20;;
45762;SDS011;37512;52.408;13.356;2023-08-30T21:15:51;7.30;;;3.55;;
45762;SDS011;37512;52.408;13.356;2023-08-30T21:19:52;9.88;;;3.63;;
45762;SDS011;37512;52.408;13.356;2023-08-30T21:23:54;6.20;;;3.88;;
45762;SDS011;37512;52.408;13.356;2023-08-30T21:28:01;6.20;;;3.95;;
45762;SDS011;37512;52.408;13.356;2023-08-30T21:32:04;5.28;;;3.80;;
45762;SDS011;37512;52.408;13.356;2023-08-30T21:36:06;3.55;;;3.10;;
45762;SDS011;37512;52.408;13.356;2023-08-30T21:40:12;5.85;;;3.70;;
45762;SDS011;37512;52.408;13.356;2023-08-30T21:44:13;3.75;;;3.10;;
45762;SDS011;37512;52.408;13.356;2023-08-30T21:48:15;5.65;;;3.60;;
45762;SDS011;37512;52.408;13.356;2023-08-30T21:52:16;5.00;;;3.72;;
45762;SDS011;37512;52.408;13.356;2023-08-30T21:56:18;7.85;;;3.30;;
45762;SDS011;37512;52.408;13.356;2023-08-30T22:00:23;4.43;;;3.75;;
45762;SDS011;37512;52.408;13.356;2023-08-30T22:04:24;4.22;;;3.60;;
45762;SDS011;37512;52.408;13.356;2023-08-30T22:08:26;4.30;;;3.67;;
45762;SDS011;37512;52.408;13.356;2023-08-30T22:12:28;8.05;;;3.70;;
45762;SDS011;37512;52.408;13.356;2023-08-30T22:16:30;5.82;;;3.63;;
45762;SDS011;37512;52.408;13.356;2023-08-30T22:20:31;4.53;;;3.38;;
45762;SDS011;37512;52.408;13.356;2023-08-30T22:24:33;4.47;;;3.58;;
45762;SDS011;37512;52.408;13.356;2023-08-30T22:28:35;8.27;;;4.10;;
45762;SDS011;37512;52.408;13.356;2023-08-30T22:32:37;5.65;;;4.03;;
45762;SDS011;37512;52.408;13.356;2023-08-30T22:36:39;7.32;;;3.70;;
45762;SDS011;37512;52.408;13.356;2023-08-30T22:40:42;7.20;;;4.50;;
45762;SDS011;37512;52.408;13.356;2023-08-30T22:44:44;8.15;;;3.90;;
45762;SDS011;37512;52.408;13.356;2023-08-30T22:48:46;4.15;;;3.42;;
45762;SDS011;37512;52.408;13.356;2023-08-30T22:52:47;6.50;;;3.67;;
45762;SDS011;37512;52.408;13.356;2023-08-30T22:56:49;5.38;;;3.45;;
45762;SDS011;37512;52.408;13.356;2023-08-30T23:00:51;6.70;;;3.30;;
45762;SDS011;37512;52.408;13.356;2023-08-30T23:04:52;4.45;;;3.30;;
45762;SDS011;37512;52.408;13.356;2023-08-30T23:08:54;6.32;;;3.60;;
45762;SDS011;37512;52.408;13.356;2023-08-30T23:12:55;5.40;;;3.80;;
45762;SDS011;37512;52.408;13.356;2023-08-30T23:16:57;9.82;;;4.05;;
45762;SDS011;37512;52.408;13.356;2023-08-30T23:20:58;4.90;;;3.90;;
45762;SDS011;37512;52.408;13.356;2023-08-30T23:25:00;7.18;;;4.25;;
45762;SDS011;37512;52.408;13.356;2023-08-30T23:29:01;5.93;;;4.10;;
45762;SDS011;37512;52.408;13.356;2023-08-30T23:33:03;6.30;;;4.30;;
45762;SDS011;37512;52.408;13.356;2023-08-30T23:37:05;5.72;;;4.55;;
45762;SDS011;37512;52.408;13.356;2023-08-30T23:41:08;5.75;;;4.45;;
45762;SDS011;37512;52.408;13.356;2023-08-30T23:45:09;8.25;;;4.60;;
45762;SDS011;37512;52.408;13.356;2023-08-30T23:49:11;5.45;;;4.38;;
45762;SDS011;37512;52.408;13.356;2023-08-30T23:53:13;7.82;;;4.57;;
45762;SDS011;37512;52.408;13.356;2023-08-30T23:57:15;5.53;;;4.88;;
